Loveville, Maryland
Current Conditions -  °F | °C
As of 5:33 PM on Friday 19 Dec 2014 (Local Time) from K2W6 Reporting Station
Scattered Clouds Scattered Clouds  
Wind Chill: 36°   Ceiling: Unl
Heat Index: 36°   Visibility: 10mi
Dew Point: 23°   Wind: 0mph
Humidity: 60%   Direction: NA
Pressure: 30.19"   Gusts: NA
Location:  38.36°N, 76.69°W
Report Text: K2W6 192233Z AUTO 00000KT 10SM SCT039 02/M05 A3019 RMK AO1
Loading
Personal Weather Stations






























Interactive Weather Map New forecast layout! Learn more

10-Day Weather Forecast

Advertisements
Track Severe Weather on mobile